createdAt,value
2019-02-25T00:01:40.036Z,0.00
2019-02-25T00:03:40.281Z,0.00
2019-02-25T00:05:39.953Z,0.00
2019-02-25T00:07:39.968Z,0.00
2019-02-25T00:09:40.186Z,0.00
2019-02-25T00:11:39.994Z,0.00
2019-02-25T00:13:40.009Z,0.00
2019-02-25T00:15:40.523Z,0.00
2019-02-25T00:17:40.018Z,0.00
2019-02-25T00:19:40.036Z,0.00
2019-02-25T00:21:39.989Z,0.00
2019-02-25T00:23:40.159Z,0.00
2019-02-25T00:25:39.998Z,0.00
2019-02-25T00:27:40.182Z,0.00
2019-02-25T00:29:40.200Z,0.00
2019-02-25T00:31:40.041Z,0.00
2019-02-25T00:33:40.266Z,0.02
2019-02-25T00:35:40.025Z,0.00
2019-02-25T00:37:39.977Z,0.00
2019-02-25T00:39:40.153Z,0.00
2019-02-25T00:41:41.122Z,0.01
2019-02-25T00:43:40.114Z,0.00
2019-02-25T00:45:39.968Z,0.00
2019-02-25T00:47:40.191Z,0.00
2019-02-25T00:49:40.202Z,0.00
2019-02-25T00:51:40.118Z,0.00
2019-02-25T00:53:40.232Z,0.00
2019-02-25T00:55:39.990Z,0.00
2019-02-25T00:57:40.256Z,0.00
2019-02-25T00:59:40.264Z,0.00
2019-02-25T01:01:40.480Z,0.00
2019-02-25T01:03:40.112Z,0.00
2019-02-25T01:05:40.089Z,0.00
2019-02-25T01:07:40.109Z,0.00
2019-02-25T01:09:40.280Z,0.00
2019-02-25T01:11:40.338Z,0.00
2019-02-25T01:13:40.233Z,0.02
2019-02-25T01:15:40.337Z,0.00
2019-02-25T01:17:40.264Z,0.00
2019-02-25T01:19:40.173Z,0.00
2019-02-25T01:21:40.288Z,0.00
2019-02-25T01:23:40.299Z,0.00
2019-02-25T01:25:40.383Z,0.00
2019-02-25T01:27:40.321Z,0.00
2019-02-25T01:29:40.042Z,0.00
2019-02-25T01:31:40.042Z,0.00
2019-02-25T01:33:40.180Z,0.00
2019-02-25T01:35:40.287Z,0.01
2019-02-25T01:37:40.298Z,0.00
2019-02-25T01:39:40.397Z,0.00
2019-02-25T01:41:40.609Z,0.00
2019-02-25T01:43:40.204Z,0.00
2019-02-25T01:45:40.410Z,0.00
2019-02-25T01:47:40.435Z,0.00
2019-02-25T01:49:40.031Z,0.00
2019-02-25T01:51:40.421Z,0.00
2019-02-25T01:53:40.168Z,0.00
2019-02-25T01:55:40.121Z,0.00
2019-02-25T01:57:40.170Z,0.01
2019-02-25T01:59:40.328Z,0.04
2019-02-25T02:01:40.319Z,0.00
2019-02-25T02:03:40.531Z,0.00
2019-02-25T02:05:40.244Z,0.00
2019-02-25T02:07:40.352Z,0.00
2019-02-25T02:09:40.361Z,0.00
2019-02-25T02:11:40.153Z,0.00
2019-02-25T02:13:40.193Z,0.00
2019-02-25T02:15:40.306Z,0.00
2019-02-25T02:17:40.052Z,0.00
2019-02-25T02:19:40.322Z,0.00
2019-02-25T02:21:40.428Z,0.00
2019-02-25T02:23:40.238Z,0.00
2019-02-25T02:25:40.456Z,0.00
2019-02-25T02:27:40.436Z,0.00
2019-02-25T02:29:40.278Z,0.00
2019-02-25T02:31:40.223Z,0.00
2019-02-25T02:33:40.333Z,0.00
2019-02-25T02:35:40.217Z,0.00
2019-02-25T02:37:40.065Z,0.07
2019-02-25T02:39:40.329Z,0.00
2019-02-25T02:41:40.058Z,0.00
2019-02-25T02:43:40.358Z,0.00
2019-02-25T02:45:40.370Z,0.00
2019-02-25T02:47:40.383Z,0.00
2019-02-25T02:49:40.286Z,0.12
2019-02-25T02:51:40.913Z,0.12
2019-02-25T02:53:40.420Z,0.02
2019-02-25T02:55:40.233Z,0.00
2019-02-25T02:57:40.341Z,0.00
2019-02-25T02:59:40.424Z,0.00
2019-02-25T03:01:40.396Z,0.00
2019-02-25T03:03:40.675Z,0.00
2019-02-25T03:05:40.281Z,0.00
2019-02-25T03:07:40.168Z,0.00
2019-02-25T03:09:40.402Z,0.01
2019-02-25T03:11:40.159Z,0.00
2019-02-25T03:13:40.430Z,0.00
2019-02-25T03:15:40.295Z,0.00
2019-02-25T03:17:40.351Z,0.00
2019-02-25T03:19:40.359Z,0.00
2019-02-25T03:21:40.678Z,0.00
2019-02-25T03:23:40.479Z,0.00
2019-02-25T03:25:40.701Z,0.00
2019-02-25T03:27:40.305Z,0.00
2019-02-25T03:29:40.520Z,0.00
2019-02-25T03:31:40.534Z,0.00
2019-02-25T03:33:40.298Z,0.00
2019-02-25T03:35:40.350Z,0.00
2019-02-25T03:37:40.260Z,0.00
2019-02-25T03:39:40.475Z,0.00
2019-02-25T03:41:40.281Z,0.00
2019-02-25T03:43:40.148Z,0.00
2019-02-25T03:45:40.614Z,0.00
2019-02-25T03:47:40.622Z,0.00
2019-02-25T03:49:40.536Z,0.00
2019-02-25T03:51:40.426Z,0.00
2019-02-25T03:53:40.427Z,0.00
2019-02-25T03:55:40.205Z,0.00
2019-02-25T03:57:40.474Z,0.02
2019-02-25T03:59:40.490Z,0.00
2019-02-25T04:01:40.297Z,0.00
2019-02-25T04:03:40.493Z,0.00
2019-02-25T04:05:40.422Z,0.00
2019-02-25T04:07:40.536Z,0.00
2019-02-25T04:09:40.445Z,0.00
2019-02-25T04:11:40.555Z,0.00
2019-02-25T04:13:40.374Z,0.00
2019-02-25T04:15:40.272Z,0.00
2019-02-25T04:17:40.386Z,0.00
2019-02-25T04:19:40.498Z,0.00
2019-02-25T04:21:40.713Z,0.00
2019-02-25T04:23:40.490Z,0.00
2019-02-25T04:25:40.329Z,0.00
2019-02-25T04:27:40.477Z,0.00
2019-02-25T04:29:40.353Z,0.00
2019-02-25T04:31:40.365Z,0.00
2019-02-25T04:33:40.566Z,0.00
2019-02-25T04:35:40.355Z,0.00
2019-02-25T04:37:40.355Z,0.00
2019-02-25T04:39:40.427Z,0.00
2019-02-25T04:41:40.427Z,0.00
2019-02-25T04:43:40.641Z,0.00
2019-02-25T04:45:40.191Z,0.00
2019-02-25T04:47:43.277Z,0.00
2019-02-25T04:49:40.467Z,0.00
2019-02-25T04:51:40.279Z,0.00
2019-02-25T04:53:40.451Z,0.00
2019-02-25T04:55:40.482Z,0.00
2019-02-25T04:57:40.464Z,0.00
2019-02-25T04:59:40.570Z,0.00
2019-02-25T05:01:40.279Z,0.00
2019-02-25T05:03:40.554Z,0.00
2019-02-25T05:05:40.557Z,0.00
2019-02-25T05:07:40.378Z,0.00
2019-02-25T05:09:40.590Z,0.00
2019-02-25T05:11:40.601Z,0.00
2019-02-25T05:13:40.403Z,0.00
2019-02-25T05:15:40.631Z,0.00
2019-02-25T05:17:40.224Z,0.00
2019-02-25T05:19:40.546Z,0.00
2019-02-25T05:21:40.551Z,0.00
2019-02-25T05:23:40.253Z,0.00
2019-02-25T05:25:40.321Z,0.00
2019-02-25T05:27:40.375Z,0.00
2019-02-25T05:29:40.597Z,0.00
2019-02-25T05:31:40.413Z,0.00
2019-02-25T05:33:40.820Z,0.00
2019-02-25T05:35:40.426Z,0.00
2019-02-25T05:37:40.229Z,0.00
2019-02-25T05:39:40.561Z,0.00
2019-02-25T05:41:40.222Z,0.00
2019-02-25T05:43:40.472Z,0.00
2019-02-25T05:45:40.241Z,0.00
2019-02-25T05:47:40.502Z,0.00
2019-02-25T05:49:40.436Z,0.00
2019-02-25T05:51:40.523Z,0.00
2019-02-25T05:53:40.361Z,0.00
2019-02-25T05:55:40.858Z,0.00
2019-02-25T05:57:40.530Z,0.00
2019-02-25T05:59:40.470Z,0.00
2019-02-25T06:01:40.370Z,0.00
2019-02-25T06:03:40.590Z,0.00
2019-02-25T06:05:40.595Z,0.00
2019-02-25T06:07:40.311Z,0.00
2019-02-25T06:09:40.521Z,0.00
2019-02-25T06:11:40.539Z,0.00
2019-02-25T06:13:40.339Z,0.00
2019-02-25T06:15:40.663Z,0.00
2019-02-25T06:17:40.779Z,0.00
2019-02-25T06:19:40.488Z,0.00
2019-02-25T06:21:40.557Z,0.00
2019-02-25T06:23:40.398Z,0.00
2019-02-25T06:25:40.409Z,0.00
2019-02-25T06:27:41.034Z,0.00
2019-02-25T06:29:40.428Z,0.00
2019-02-25T06:31:40.549Z,0.00
2019-02-25T06:33:40.705Z,0.00
2019-02-25T06:35:40.478Z,0.00
2019-02-25T06:37:40.988Z,0.00
2019-02-25T06:39:40.588Z,0.00
2019-02-25T06:41:40.351Z,0.00
2019-02-25T06:43:40.360Z,0.00
2019-02-25T06:45:40.623Z,0.00
2019-02-25T06:47:40.437Z,0.00
2019-02-25T06:49:40.652Z,0.00
2019-02-25T06:51:40.584Z,0.00
2019-02-25T06:53:40.613Z,0.00
2019-02-25T06:55:40.892Z,0.00
2019-02-25T06:57:40.697Z,0.00
2019-02-25T06:59:40.705Z,0.00
2019-02-25T07:01:40.614Z,0.00
2019-02-25T07:03:40.578Z,0.00
2019-02-25T07:05:40.331Z,0.00
2019-02-25T07:07:40.347Z,0.00
2019-02-25T07:09:40.357Z,0.00
2019-02-25T07:11:40.437Z,0.00
2019-02-25T07:13:40.385Z,0.00
2019-02-25T07:15:40.896Z,0.00
2019-02-25T07:17:40.713Z,0.00
2019-02-25T07:19:40.664Z,0.00
2019-02-25T07:21:40.743Z,0.00
2019-02-25T07:23:40.440Z,0.00
2019-02-25T07:25:40.338Z,0.00
2019-02-25T07:27:41.971Z,0.00
2019-02-25T07:29:40.571Z,0.00
2019-02-25T07:31:40.489Z,0.00
2019-02-25T07:33:40.534Z,0.00
2019-02-25T07:35:40.616Z,0.00
2019-02-25T07:37:40.727Z,0.00
2019-02-25T07:39:40.735Z,0.00
2019-02-25T07:41:40.739Z,0.00
2019-02-25T07:43:40.812Z,0.00
2019-02-25T07:45:40.772Z,0.00
2019-02-25T07:47:40.691Z,0.00
2019-02-25T07:49:40.483Z,0.00
2019-02-25T07:51:40.474Z,0.00
2019-02-25T07:53:40.594Z,0.00
2019-02-25T07:55:40.357Z,0.00
2019-02-25T07:57:40.633Z,0.00
2019-02-25T07:59:40.850Z,0.02
2019-02-25T08:01:40.447Z,0.03
2019-02-25T08:03:40.671Z,0.27
2019-02-25T08:05:40.468Z,0.00
2019-02-25T08:07:40.484Z,0.00
2019-02-25T08:09:40.452Z,0.00
2019-02-25T08:11:40.725Z,0.01
2019-02-25T08:13:40.683Z,0.01
2019-02-25T08:15:40.718Z,0.05
2019-02-25T08:17:40.657Z,0.03
2019-02-25T08:19:40.601Z,0.07
2019-02-25T08:21:40.482Z,0.39
2019-02-25T08:23:40.782Z,0.35
2019-02-25T08:25:40.597Z,0.05
2019-02-25T08:27:40.608Z,0.26
2019-02-25T08:29:40.820Z,0.94
2019-02-25T08:31:40.979Z,0.90
2019-02-25T08:33:40.483Z,1.18
2019-02-25T08:35:40.579Z,0.91
2019-02-25T08:37:40.667Z,0.86
2019-02-25T08:39:40.652Z,0.72
2019-02-25T08:41:40.638Z,0.67
2019-02-25T08:43:40.698Z,0.69
2019-02-25T08:45:40.544Z,0.72
2019-02-25T08:47:40.724Z,1.13
2019-02-25T08:49:40.669Z,0.91
2019-02-25T08:51:40.940Z,0.25
2019-02-25T08:53:40.848Z,0.47
2019-02-25T08:55:40.773Z,0.86
2019-02-25T08:57:40.794Z,0.30
2019-02-25T08:59:40.714Z,0.68
2019-02-25T09:01:40.593Z,0.24
2019-02-25T09:03:40.694Z,0.43
2019-02-25T09:05:40.924Z,0.77
2019-02-25T09:07:42.568Z,1.04
2019-02-25T09:09:40.916Z,0.36
2019-02-25T09:11:40.646Z,0.00
2019-02-25T09:13:41.277Z,0.02
2019-02-25T09:15:40.633Z,0.63
2019-02-25T09:17:40.680Z,0.86
2019-02-25T09:19:40.699Z,0.98
2019-02-25T09:21:40.608Z,0.25
2019-02-25T09:23:40.752Z,0.06
2019-02-25T09:25:40.751Z,0.04
2019-02-25T09:27:40.867Z,0.39
2019-02-25T09:29:41.061Z,0.71
2019-02-25T09:31:40.869Z,0.82
2019-02-25T09:33:41.027Z,0.36
2019-02-25T09:35:40.837Z,0.12
2019-02-25T09:37:40.698Z,0.70
2019-02-25T09:39:40.703Z,0.96
2019-02-25T09:41:40.744Z,0.84
2019-02-25T09:43:40.731Z,0.26
2019-02-25T09:45:40.910Z,0.14
2019-02-25T09:47:40.867Z,1.00
2019-02-25T09:49:40.872Z,0.91
2019-02-25T09:51:40.873Z,1.12
2019-02-25T09:53:40.699Z,0.98
2019-02-25T09:55:40.802Z,0.34
2019-02-25T09:57:40.916Z,0.47
2019-02-25T09:59:41.023Z,0.86
2019-02-25T10:01:40.738Z,0.55
2019-02-25T10:03:40.840Z,1.08
2019-02-25T10:05:40.856Z,0.47
2019-02-25T10:07:40.666Z,0.33
2019-02-25T10:09:40.890Z,0.80
2019-02-25T10:11:41.003Z,1.02
2019-02-25T10:13:40.918Z,0.35
2019-02-25T10:15:40.961Z,0.01
2019-02-25T10:17:40.725Z,0.53
2019-02-25T10:19:40.732Z,0.53
2019-02-25T10:21:40.826Z,0.97
2019-02-25T10:23:40.707Z,1.00
2019-02-25T10:25:40.764Z,1.10
2019-02-25T10:27:40.886Z,0.84
2019-02-25T10:29:40.684Z,0.88
2019-02-25T10:31:41.693Z,0.42
2019-02-25T10:33:40.921Z,0.60
2019-02-25T10:35:40.879Z,0.02
2019-02-25T10:37:41.425Z,0.66
2019-02-25T10:39:41.661Z,0.59
2019-02-25T10:41:41.133Z,1.43
2019-02-25T10:43:40.855Z,0.91
2019-02-25T10:45:41.571Z,0.63
2019-02-25T10:47:42.053Z,1.08
2019-02-25T10:49:40.705Z,0.85
2019-02-25T10:51:41.208Z,0.27
2019-02-25T10:53:40.833Z,0.95
2019-02-25T10:55:44.471Z,0.27
2019-02-25T10:57:40.909Z,1.11
2019-02-25T10:59:41.487Z,0.98
2019-02-25T11:01:41.433Z,1.24
2019-02-25T11:03:40.892Z,1.72
2019-02-25T11:05:41.314Z,0.88
2019-02-25T11:07:42.037Z,1.49
2019-02-25T11:09:41.944Z,0.68
2019-02-25T11:11:40.724Z,0.29
2019-02-25T11:13:41.044Z,1.03
2019-02-25T11:15:42.388Z,1.42
2019-02-25T11:17:40.932Z,0.76
2019-02-25T11:19:41.084Z,0.97
2019-02-25T11:21:42.219Z,0.78
2019-02-25T11:23:42.907Z,0.61
2019-02-25T11:25:40.880Z,1.11
2019-02-25T11:27:41.336Z,1.10
2019-02-25T11:29:42.141Z,1.53
2019-02-25T11:31:41.236Z,0.62
2019-02-25T11:33:40.747Z,1.32
2019-02-25T11:35:41.625Z,0.83
2019-02-25T11:37:40.714Z,1.09
2019-02-25T11:39:40.921Z,1.21
2019-02-25T11:41:41.134Z,0.62
2019-02-25T11:43:40.937Z,1.23
2019-02-25T11:45:40.955Z,1.53
2019-02-25T11:47:41.955Z,1.78
2019-02-25T11:49:41.053Z,1.05
2019-02-25T11:51:40.957Z,0.34
2019-02-25T11:53:40.762Z,0.94
2019-02-25T11:55:40.985Z,1.23
2019-02-25T11:57:40.709Z,2.04
2019-02-25T11:59:41.111Z,1.92
2019-02-25T12:01:40.852Z,1.00
2019-02-25T12:03:41.339Z,1.44
2019-02-25T12:05:40.942Z,0.80
2019-02-25T12:07:40.898Z,1.73
2019-02-25T12:09:41.017Z,1.06
2019-02-25T12:11:40.876Z,1.89
2019-02-25T12:13:41.094Z,1.13
2019-02-25T12:15:40.896Z,1.53
2019-02-25T12:17:40.804Z,1.06
2019-02-25T12:19:40.823Z,1.06
2019-02-25T12:21:42.377Z,0.30
2019-02-25T12:23:40.758Z,0.46
2019-02-25T12:25:40.944Z,0.80
2019-02-25T12:27:41.061Z,0.52
2019-02-25T12:29:41.162Z,1.00
2019-02-25T12:31:40.953Z,0.95
2019-02-25T12:33:41.214Z,0.30
2019-02-25T12:35:41.113Z,0.95
2019-02-25T12:37:41.128Z,0.33
2019-02-25T12:39:41.046Z,0.92
2019-02-25T12:41:43.835Z,0.68
2019-02-25T12:43:41.060Z,0.78
2019-02-25T12:45:41.070Z,1.33
2019-02-25T12:47:41.190Z,0.99
2019-02-25T12:49:40.891Z,1.58
2019-02-25T12:51:41.089Z,1.35
2019-02-25T12:53:41.061Z,1.14
2019-02-25T12:55:41.024Z,0.64
2019-02-25T12:57:41.152Z,1.27
2019-02-25T12:59:41.259Z,1.03
2019-02-25T13:01:41.271Z,1.40
2019-02-25T13:03:41.444Z,1.74
2019-02-25T13:05:41.109Z,0.63
2019-02-25T13:07:41.005Z,0.92
2019-02-25T13:09:41.317Z,2.41
2019-02-25T13:11:41.367Z,1.62
2019-02-25T13:13:41.338Z,1.01
2019-02-25T13:15:41.141Z,0.96
2019-02-25T13:17:41.365Z,1.11
2019-02-25T13:19:41.169Z,1.00
2019-02-25T13:21:41.286Z,1.08
2019-02-25T13:23:41.056Z,0.94
2019-02-25T13:25:41.034Z,0.39
2019-02-25T13:27:41.111Z,0.80
2019-02-25T13:29:41.095Z,1.14
2019-02-25T13:31:41.471Z,1.00
2019-02-25T13:33:41.061Z,1.67
2019-02-25T13:35:40.906Z,1.21
2019-02-25T13:37:40.970Z,1.18
2019-02-25T13:39:41.288Z,1.48
2019-02-25T13:41:41.098Z,1.32
2019-02-25T13:43:41.341Z,0.36
2019-02-25T13:45:41.317Z,0.60
2019-02-25T13:47:41.327Z,0.27
2019-02-25T13:49:40.980Z,0.59
2019-02-25T13:51:40.986Z,1.56
2019-02-25T13:53:41.274Z,0.81
2019-02-25T13:55:41.149Z,0.61
2019-02-25T13:57:41.201Z,0.35
2019-02-25T13:59:41.038Z,0.55
2019-02-25T14:01:41.352Z,1.08
2019-02-25T14:03:41.507Z,0.90
2019-02-25T14:05:41.092Z,0.93
2019-02-25T14:07:41.289Z,0.85
2019-02-25T14:09:41.469Z,0.94
2019-02-25T14:11:41.268Z,0.15
2019-02-25T14:13:41.071Z,0.65
2019-02-25T14:15:41.293Z,0.42
2019-02-25T14:17:41.231Z,0.43
2019-02-25T14:19:41.056Z,0.78
2019-02-25T14:21:41.529Z,0.82
2019-02-25T14:23:41.147Z,1.23
2019-02-25T14:25:41.667Z,1.13
2019-02-25T14:27:41.472Z,1.28
2019-02-25T14:29:41.481Z,0.95
2019-02-25T14:31:41.192Z,1.06
2019-02-25T14:33:41.247Z,0.78
2019-02-25T14:35:41.409Z,0.74
2019-02-25T14:37:41.112Z,0.62
2019-02-25T14:39:43.144Z,0.82
2019-02-25T14:41:41.450Z,0.70
2019-02-25T14:43:46.218Z,0.28
2019-02-25T14:45:42.084Z,0.44
2019-02-25T14:47:42.074Z,0.63
2019-02-25T14:49:42.845Z,0.61
2019-02-25T14:51:41.322Z,0.06
2019-02-25T14:53:42.273Z,0.28
2019-02-25T14:55:42.741Z,0.35
2019-02-25T14:57:43.571Z,0.45
2019-02-25T14:59:41.345Z,0.51
2019-02-25T15:01:41.158Z,0.01
2019-02-25T15:03:41.373Z,0.02
2019-02-25T15:05:41.017Z,0.23
2019-02-25T15:07:42.470Z,0.53
2019-02-25T15:09:43.083Z,0.28
2019-02-25T15:11:41.420Z,0.57
2019-02-25T15:13:41.635Z,0.31
2019-02-25T15:15:43.359Z,0.17
2019-02-25T15:17:42.075Z,0.00
2019-02-25T15:19:42.824Z,0.08
2019-02-25T15:21:43.142Z,0.00
2019-02-25T15:23:41.038Z,0.08
2019-02-25T15:25:43.158Z,0.14
2019-02-25T15:27:41.309Z,0.14
2019-02-25T15:29:42.240Z,0.12
2019-02-25T15:31:41.233Z,0.49
2019-02-25T15:33:42.468Z,0.00
2019-02-25T15:35:41.673Z,0.29
2019-02-25T15:37:44.465Z,0.00
2019-02-25T15:39:42.456Z,0.14
2019-02-25T15:41:44.123Z,0.60
2019-02-25T15:43:41.918Z,0.55
2019-02-25T15:45:42.546Z,1.19
2019-02-25T15:47:42.477Z,0.20
2019-02-25T15:49:41.230Z,0.00
2019-02-25T15:51:43.021Z,0.04
2019-02-25T15:53:42.435Z,0.01
2019-02-25T15:55:41.386Z,0.00
2019-02-25T15:57:41.687Z,0.00
2019-02-25T15:59:41.192Z,0.03
2019-02-25T16:01:41.409Z,0.00
2019-02-25T16:03:43.097Z,0.45
2019-02-25T16:05:41.231Z,0.30
2019-02-25T16:07:41.443Z,0.00
2019-02-25T16:09:41.667Z,0.00
2019-02-25T16:11:43.350Z,0.00
2019-02-25T16:13:41.478Z,0.00
2019-02-25T16:15:41.490Z,0.01
2019-02-25T16:17:41.707Z,0.00
2019-02-25T16:19:47.382Z,0.00
2019-02-25T16:21:41.331Z,0.05
2019-02-25T16:23:42.617Z,0.00
2019-02-25T16:25:41.347Z,0.07
2019-02-25T16:27:42.957Z,0.00
2019-02-25T16:29:41.165Z,0.01
2019-02-25T16:31:41.690Z,0.00
2019-02-25T16:33:41.491Z,0.00
2019-02-25T16:35:41.708Z,0.00
2019-02-25T16:37:42.721Z,0.00
2019-02-25T16:39:41.327Z,0.00
2019-02-25T16:41:41.818Z,0.00
2019-02-25T16:43:41.287Z,0.00
2019-02-25T16:45:43.949Z,0.00
2019-02-25T16:47:41.370Z,0.03
2019-02-25T16:49:41.180Z,0.02
2019-02-25T16:51:41.635Z,0.00
2019-02-25T16:53:43.228Z,0.11
2019-02-25T16:55:42.295Z,0.00
2019-02-25T16:57:42.932Z,0.00
2019-02-25T16:59:41.447Z,0.00
2019-02-25T17:01:41.674Z,0.02
2019-02-25T17:03:41.902Z,0.00
2019-02-25T17:05:42.870Z,0.00
2019-02-25T17:07:42.499Z,0.00
2019-02-25T17:09:42.919Z,0.00
2019-02-25T17:11:42.255Z,0.00
2019-02-25T17:13:41.562Z,0.00
2019-02-25T17:15:41.644Z,0.00
2019-02-25T17:17:41.247Z,0.00
2019-02-25T17:19:41.370Z,0.00
2019-02-25T17:21:43.345Z,0.00
2019-02-25T17:23:41.597Z,0.00
2019-02-25T17:25:43.530Z,0.00
2019-02-25T17:27:41.545Z,0.00
2019-02-25T17:29:41.389Z,0.00
2019-02-25T17:31:41.226Z,0.00
2019-02-25T17:33:42.057Z,0.00
2019-02-25T17:35:43.503Z,0.00
2019-02-25T17:37:41.691Z,0.00
2019-02-25T17:39:41.424Z,0.00
2019-02-25T17:41:42.606Z,0.00
2019-02-25T17:43:43.007Z,0.00
2019-02-25T17:45:41.616Z,0.00
2019-02-25T17:47:41.938Z,0.00
2019-02-25T17:49:42.939Z,0.00
2019-02-25T17:51:41.725Z,0.00
2019-02-25T17:53:43.848Z,0.00
2019-02-25T17:55:41.323Z,0.00
2019-02-25T17:57:41.542Z,0.00
2019-02-25T17:59:43.726Z,0.00
2019-02-25T18:01:42.489Z,0.00
2019-02-25T18:03:42.193Z,0.02
2019-02-25T18:05:43.245Z,0.00
2019-02-25T18:07:42.118Z,0.00
2019-02-25T18:09:42.705Z,0.00
2019-02-25T18:11:43.348Z,0.00
2019-02-25T18:13:41.877Z,0.00
2019-02-25T18:15:41.889Z,0.00
2019-02-25T18:17:42.724Z,0.00
2019-02-25T18:19:45.278Z,0.00
2019-02-25T18:21:43.771Z,0.00
2019-02-25T18:23:41.813Z,0.00
2019-02-25T18:25:41.944Z,0.02
2019-02-25T18:27:43.995Z,0.00
2019-02-25T18:29:43.990Z,0.00
2019-02-25T18:31:41.880Z,0.00
2019-02-25T18:33:42.426Z,0.00
2019-02-25T18:35:43.375Z,0.00
2019-02-25T18:37:43.439Z,0.00
2019-02-25T18:39:43.250Z,0.00
2019-02-25T18:41:41.638Z,0.00
2019-02-25T18:43:42.993Z,0.00
2019-02-25T18:45:43.120Z,0.00
2019-02-25T18:47:41.834Z,0.00
2019-02-25T18:49:41.904Z,0.00
2019-02-25T18:51:44.691Z,0.00
2019-02-25T18:53:42.014Z,0.00
2019-02-25T18:55:43.195Z,0.00
2019-02-25T18:57:43.474Z,0.00
2019-02-25T18:59:41.840Z,0.00
2019-02-25T19:01:43.138Z,0.05
2019-02-25T19:03:41.707Z,0.00
2019-02-25T19:05:41.888Z,0.00
2019-02-25T19:07:41.900Z,0.00
2019-02-25T19:09:42.951Z,0.00
2019-02-25T19:11:42.835Z,0.00
2019-02-25T19:13:41.817Z,0.00
2019-02-25T19:15:41.625Z,0.00
2019-02-25T19:17:41.639Z,0.00
2019-02-25T19:19:42.463Z,0.02
2019-02-25T19:21:41.583Z,0.05
2019-02-25T19:23:42.265Z,0.13
2019-02-25T19:25:41.699Z,0.00
2019-02-25T19:27:41.804Z,0.00
2019-02-25T19:29:45.473Z,0.00
2019-02-25T19:31:42.497Z,0.00
2019-02-25T19:33:41.781Z,0.00
2019-02-25T19:35:41.855Z,0.00
2019-02-25T19:37:42.703Z,0.00
2019-02-25T19:39:43.541Z,0.00
2019-02-25T19:41:45.095Z,0.01
2019-02-25T19:43:41.553Z,0.00
2019-02-25T19:45:43.207Z,0.00
2019-02-25T19:47:43.268Z,0.00
2019-02-25T19:49:43.557Z,0.00
2019-02-25T19:51:43.377Z,0.00
2019-02-25T19:53:43.038Z,0.00
2019-02-25T19:55:43.453Z,0.00
2019-02-25T19:57:42.596Z,0.00
2019-02-25T19:59:43.403Z,0.00
2019-02-25T20:01:41.756Z,0.00
2019-02-25T20:03:42.738Z,0.00
2019-02-25T20:05:43.724Z,0.00
2019-02-25T20:07:41.934Z,0.00
2019-02-25T20:09:41.838Z,0.00
2019-02-25T20:11:42.829Z,0.00
2019-02-25T20:13:43.080Z,0.00
2019-02-25T20:15:42.438Z,0.00
2019-02-25T20:17:43.688Z,0.00
2019-02-25T20:19:43.055Z,0.00
2019-02-25T20:21:41.576Z,0.00
2019-02-25T20:23:41.512Z,0.00
2019-02-25T20:25:44.434Z,0.00
2019-02-25T20:27:41.640Z,0.00
2019-02-25T20:29:42.450Z,0.05
2019-02-25T20:31:41.718Z,0.00
2019-02-25T20:33:41.982Z,0.08
2019-02-25T20:35:44.977Z,0.06
2019-02-25T20:37:41.711Z,0.09
2019-02-25T20:39:42.912Z,0.04
2019-02-25T20:41:43.342Z,0.00
2019-02-25T20:43:41.637Z,0.00
2019-02-25T20:45:41.328Z,0.00
2019-02-25T20:47:41.302Z,0.00
2019-02-25T20:49:41.358Z,0.00
2019-02-25T20:51:43.482Z,0.00
2019-02-25T20:53:41.586Z,0.00
2019-02-25T20:55:41.593Z,0.00
2019-02-25T20:57:41.818Z,0.00
2019-02-25T20:59:41.625Z,0.00
2019-02-25T21:01:43.875Z,0.00
2019-02-25T21:03:45.612Z,0.00
2019-02-25T21:05:42.006Z,0.00
2019-02-25T21:07:41.286Z,0.00
2019-02-25T21:09:42.250Z,0.00
2019-02-25T21:11:41.922Z,0.00
2019-02-25T21:13:41.451Z,0.00
2019-02-25T21:15:42.824Z,0.00
2019-02-25T21:17:41.725Z,0.00
2019-02-25T21:19:43.810Z,0.00
2019-02-25T21:21:41.450Z,0.00
2019-02-25T21:23:41.557Z,0.00
2019-02-25T21:25:41.569Z,0.00
2019-02-25T21:27:41.578Z,0.00
2019-02-25T21:29:41.697Z,0.00
2019-02-25T21:31:43.184Z,0.00
2019-02-25T21:33:44.874Z,0.00
2019-02-25T21:35:41.881Z,0.00
2019-02-25T21:37:45.525Z,0.00
2019-02-25T21:39:42.841Z,0.00
2019-02-25T21:41:43.435Z,0.00
2019-02-25T21:43:43.329Z,0.00
2019-02-25T21:45:41.681Z,0.00
2019-02-25T21:47:41.386Z,0.00
2019-02-25T21:49:41.764Z,0.00
2019-02-25T21:51:42.087Z,0.00
2019-02-25T21:53:41.447Z,0.00
2019-02-25T21:55:41.737Z,0.00
2019-02-25T21:57:41.677Z,0.00
2019-02-25T21:59:41.394Z,0.00
2019-02-25T22:01:41.472Z,0.00
2019-02-25T22:03:45.324Z,0.00
2019-02-25T22:05:41.906Z,0.00
2019-02-25T22:07:41.449Z,0.00
2019-02-25T22:09:43.696Z,0.00
2019-02-25T22:11:41.318Z,0.00
2019-02-25T22:13:41.647Z,0.00
2019-02-25T22:15:42.889Z,0.00
2019-02-25T22:17:43.336Z,0.00
2019-02-25T22:19:43.255Z,0.00
2019-02-25T22:21:41.697Z,0.00
2019-02-25T22:23:41.704Z,0.00
2019-02-25T22:25:41.509Z,0.00
2019-02-25T22:27:43.306Z,0.00
2019-02-25T22:29:43.031Z,0.00
2019-02-25T22:31:42.410Z,0.00
2019-02-25T22:33:41.452Z,0.00
2019-02-25T22:35:47.040Z,0.00
2019-02-25T22:37:44.360Z,0.00
2019-02-25T22:39:41.566Z,0.06
2019-02-25T22:41:44.311Z,0.01
2019-02-25T22:43:43.599Z,0.00
2019-02-25T22:45:42.101Z,0.00
2019-02-25T22:47:41.639Z,0.04
2019-02-25T22:49:41.670Z,0.01
2019-02-25T22:51:41.769Z,0.01
2019-02-25T22:53:41.778Z,0.00
2019-02-25T22:55:42.612Z,0.00
2019-02-25T22:57:43.326Z,0.00
2019-02-25T22:59:41.607Z,0.00
2019-02-25T23:01:41.818Z,0.05
2019-02-25T23:03:43.276Z,0.00
2019-02-25T23:05:43.132Z,0.00
2019-02-25T23:07:44.134Z,0.00
2019-02-25T23:09:43.111Z,0.00
2019-02-25T23:11:42.125Z,0.01
2019-02-25T23:13:43.209Z,0.00
2019-02-25T23:15:44.158Z,0.00
2019-02-25T23:17:42.884Z,0.00
2019-02-25T23:19:43.076Z,0.01
2019-02-25T23:21:41.695Z,0.00
2019-02-25T23:23:41.545Z,0.00
2019-02-25T23:25:41.702Z,0.00
2019-02-25T23:27:41.775Z,0.00
2019-02-25T23:29:41.781Z,0.00
2019-02-25T23:31:45.769Z,0.01
2019-02-25T23:33:42.261Z,0.00
2019-02-25T23:35:44.651Z,0.06
2019-02-25T23:37:45.115Z,0.00
2019-02-25T23:39:43.261Z,0.08
2019-02-25T23:41:43.878Z,0.53
2019-02-25T23:43:42.393Z,0.27
2019-02-25T23:45:42.099Z,0.00
2019-02-25T23:47:41.798Z,0.00
2019-02-25T23:49:43.429Z,0.00
2019-02-25T23:51:43.634Z,0.00
2019-02-25T23:53:42.126Z,0.00
2019-02-25T23:55:45.099Z,0.01
2019-02-25T23:57:41.838Z,0.00
2019-02-25T23:59:42.706Z,0.00
